VAM | Vabird-VBD

Virtual Vabird! Aerolínea Virtual de habla hispana, desde 2011




 INFORMACIÓN METAR y TAF
METAR FOR LEGR
ADDS - METARS form results

(1209 UTC 12 April 2021)
Data provider http://aviationweather.gov/metar/data/
 
METAR text: LEGR 121200Z VRB03KT 9999 SCT049 21/09 Q1021
Conditions at: LEGR (GRANADA AIRPORT , ES) observed 1200 UTC 12 April 2021
Temperature: 21.0°C (70°F)
Dewpoint: 9.0°C (48°F) [RH = 46%]
Pressure (altimeter): 30.15 inches Hg (1021.0 mb)
Winds: variable direction winds at 3 MPH (3 knots; 1.5 m/s)
Visibility: 6 or more miles (10+ km)
Ceiling: at least 12,000 feet AGL
Clouds: scattered clouds at 4900 feet AGL
Weather: no significant weather observed at this time

METAR text: LEGR 121130Z VRB03KT 9999 SCT080 20/09 Q1021
Conditions at: LEGR (GRANADA AIRPORT , ES) observed 1130 UTC 12 April 2021
Temperature: 20.0°C (68°F)
Dewpoint: 9.0°C (48°F) [RH = 49%]
Pressure (altimeter): 30.15 inches Hg (1021.0 mb)
Winds: variable direction winds at 3 MPH (3 knots; 1.5 m/s)
Visibility: 6 or more miles (10+ km)
Ceiling: at least 12,000 feet AGL
Clouds: scattered clouds at 8000 feet AGL
Weather: no significant weather observed at this time

Forecast for: LEGR (GRANADA AIRPORT , ES)
Text: TAF LEGR 120800Z 1209/1309 VRB02KT 9999 FEW040 TX22/1215Z TN05/1306Z
Forecast period: 0900 to 1100 UTC 12 April 2021
Forecast type: FROM: standard forecast or significant change
Winds: variable direction winds at 2 MPH (2 knots; 1.0 m/s)
Visibility: 6 or more miles (10+ km)
Ceiling: at least 12,000 feet AGL
Clouds: few clouds at 4000 feet AGL
Weather: no significant weather forecast for this period
Text: BECMG 1211/1213 19010KT
Forecast period: 1100 to 1900 UTC 12 April 2021
Forecast type: BECOMING: Conditions expected to become as follows by 1300 UTC 12 April 2021
Winds: from the S (190 degrees) at 12 MPH (10 knots; 5.1 m/s)
Visibility: 6 or more miles (10+ km)
Ceiling: at least 12,000 feet AGL
Clouds: few clouds at 4000 feet AGL
Weather: no significant weather forecast for this period
Text: BECMG 1219/1221 VRB02KT
Forecast period: 1900 UTC 12 April 2021 to 0900 UTC 13 April 2021
Forecast type: BECOMING: Conditions expected to become as follows by 2100 UTC 12 April 2021
Winds: variable direction winds at 2 MPH (2 knots; 1.0 m/s)
Visibility: 6 or more miles (10+ km)
Ceiling: at least 12,000 feet AGL
Clouds: few clouds at 4000 feet AGL
Weather: no significant weather forecast for this period

 MAPA DE AEROPUERTO

 INFORMACIÓN DE PISTA